createdAt,value
2023-01-19T00:01:02.595Z,-0.2
2023-01-19T00:06:53.510Z,-0.3
2023-01-19T00:12:44.823Z,-0.1
2023-01-19T00:18:35.533Z,-0.2
2023-01-19T00:24:27.816Z,-0.1
2023-01-19T00:30:18.931Z,0
2023-01-19T00:36:08.612Z,-0.1
2023-01-19T00:41:59.616Z,0
2023-01-19T00:47:54.845Z,0
2023-01-19T00:53:44.713Z,0
2023-01-19T00:59:34.964Z,-0.1
2023-01-19T01:05:25.541Z,-0.2
2023-01-19T01:11:16.856Z,-0.2
2023-01-19T01:17:07.610Z,-0.2
2023-01-19T01:22:58.016Z,-0.2
2023-01-19T01:28:50.855Z,-0.3
2023-01-19T01:34:41.924Z,-0.1
2023-01-19T01:40:32.684Z,-0.1
2023-01-19T01:46:23.808Z,-0.2
2023-01-19T01:52:14.037Z,-0.3
2023-01-19T01:58:04.812Z,-0.3
2023-01-19T02:03:55.797Z,-0.4
2023-01-19T02:09:49.153Z,-0.2
2023-01-19T02:15:39.934Z,-0.4
2023-01-19T02:21:30.822Z,-0.3
2023-01-19T02:27:21.290Z,-0.5
2023-01-19T02:33:12.213Z,-0.4
2023-01-19T02:39:03.186Z,-0.5
2023-01-19T02:44:53.799Z,-0.6
2023-01-19T02:50:44.141Z,-0.9
2023-01-19T02:56:35.101Z,-0.7
2023-01-19T03:02:25.732Z,-0.6
2023-01-19T03:08:16.524Z,-0.7
2023-01-19T03:14:07.331Z,-0.6
2023-01-19T03:19:57.959Z,-0.6
2023-01-19T03:25:48.302Z,-0.5
2023-01-19T03:31:39.107Z,-0.4
2023-01-19T03:37:29.399Z,-0.6
2023-01-19T03:43:20.264Z,-0.6
2023-01-19T03:49:10.923Z,-0.6
2023-01-19T03:55:03.104Z,-0.8
2023-01-19T04:00:53.244Z,-0.9
2023-01-19T04:06:43.660Z,-0.9
2023-01-19T04:12:33.577Z,-1
2023-01-19T04:18:25.407Z,-0.9
2023-01-19T04:24:18.450Z,-0.8
2023-01-19T04:30:09.447Z,-0.6
2023-01-19T04:36:00.305Z,-0.7
2023-01-19T04:41:50.737Z,-0.8
2023-01-19T04:47:41.596Z,-0.7
2023-01-19T04:53:32.200Z,-0.6
2023-01-19T04:59:22.928Z,-0.5
2023-01-19T05:05:13.675Z,-0.6
2023-01-19T05:11:04.496Z,-0.1
2023-01-19T05:16:55.426Z,0.2
2023-01-19T05:22:46.128Z,0.2
2023-01-19T05:28:37.138Z,0.4
2023-01-19T05:34:28.178Z,0.5
2023-01-19T05:40:18.953Z,0.5
2023-01-19T05:46:10.215Z,0.4
2023-01-19T05:52:00.634Z,0.4
2023-01-19T05:57:51.882Z,0.4
2023-01-19T06:03:43.241Z,0.6
2023-01-19T06:09:33.733Z,0.6
2023-01-19T06:15:24.894Z,0.7
2023-01-19T06:21:16.292Z,0.8
2023-01-19T06:27:05.045Z,0.8
2023-01-19T06:32:53.280Z,0.9
2023-01-19T06:38:44.541Z,1.1
2023-01-19T06:44:35.371Z,1.2
2023-01-19T06:50:27.437Z,1.2
2023-01-19T06:56:16.037Z,1.2
2023-01-19T07:02:27.090Z,1.2
2023-01-19T07:08:18.423Z,1.1
2023-01-19T07:14:08.719Z,1.1
2023-01-19T07:19:59.982Z,1.1
2023-01-19T07:25:51.405Z,1.1
2023-01-19T07:31:41.894Z,1.2
2023-01-19T07:37:37.387Z,1.1
2023-01-19T07:43:28.746Z,1.2
2023-01-19T07:49:20.503Z,1.2
2023-01-19T07:55:17.781Z,1.3
2023-01-19T08:01:08.311Z,1.2
2023-01-19T08:07:00.601Z,1.2
2023-01-19T08:12:52.341Z,1.3
2023-01-19T08:18:47.936Z,1.3
2023-01-19T08:24:38.869Z,1.3
2023-01-19T08:30:28.391Z,1.3
2023-01-19T08:36:19.232Z,1.4
2023-01-19T08:42:10.514Z,1.4
2023-01-19T08:48:00.628Z,1.3
2023-01-19T08:53:51.762Z,1.4
2023-01-19T08:59:42.288Z,1.5
2023-01-19T09:05:34.569Z,1.5
2023-01-19T09:11:26.217Z,1.6
2023-01-19T09:17:15.541Z,1.6
2023-01-19T09:23:05.877Z,1.7
2023-01-19T09:28:56.992Z,1.7
2023-01-19T09:34:49.170Z,1.8
2023-01-19T09:40:42.803Z,1.9
2023-01-19T09:46:37.700Z,1.9
2023-01-19T09:52:28.596Z,1.9
2023-01-19T09:58:19.854Z,2
2023-01-19T10:04:12.108Z,2.1
2023-01-19T10:10:03.068Z,2.1
2023-01-19T10:15:54.637Z,2.2
2023-01-19T10:21:45.677Z,2.3
2023-01-19T10:27:36.200Z,2.2
2023-01-19T10:33:27.098Z,2.3
2023-01-19T10:39:17.407Z,2.3
2023-01-19T10:45:08.854Z,2.4
2023-01-19T10:50:59.035Z,2.4
2023-01-19T10:56:49.295Z,2.4
2023-01-19T11:02:39.777Z,2.4
2023-01-19T11:08:30.676Z,2.4
2023-01-19T11:14:21.041Z,2.5
2023-01-19T11:20:11.213Z,2.5
2023-01-19T11:26:01.236Z,2.7
2023-01-19T11:31:51.636Z,2.7
2023-01-19T11:37:43.272Z,2.8
2023-01-19T11:43:48.123Z,2.7
2023-01-19T11:49:39.319Z,2.9
2023-01-19T11:55:29.216Z,3.1
2023-01-19T12:01:21.474Z,3.2
2023-01-19T12:07:14.695Z,3.3
2023-01-19T12:13:05.108Z,3.4
2023-01-19T12:18:54.186Z,3.4
2023-01-19T12:24:45.918Z,3.5
2023-01-19T12:30:36.040Z,3.6
2023-01-19T12:36:27.066Z,3.7
2023-01-19T12:42:19.916Z,3.8
2023-01-19T12:48:10.442Z,3.8
2023-01-19T12:54:00.780Z,3.7
2023-01-19T12:59:53.560Z,3.8
2023-01-19T13:05:44.324Z,3.8
2023-01-19T13:11:34.872Z,3.8
2023-01-19T13:17:26.488Z,3.9
2023-01-19T13:23:19.246Z,3.9
2023-01-19T13:29:10.080Z,4
2023-01-19T13:35:00.593Z,4
2023-01-19T13:40:53.137Z,4
2023-01-19T13:46:43.336Z,4.1
2023-01-19T13:52:33.740Z,4
2023-01-19T13:58:23.822Z,4.1
2023-01-19T14:04:14.134Z,4.1
2023-01-19T14:10:05.253Z,4.1
2023-01-19T14:15:57.659Z,4.1
2023-01-19T14:21:48.170Z,4
2023-01-19T14:27:37.825Z,3.9
2023-01-19T14:33:29.230Z,4
2023-01-19T14:39:19.589Z,3.9
2023-01-19T14:45:10.086Z,3.9
2023-01-19T14:51:03.980Z,3.9
2023-01-19T14:56:54.759Z,3.9
2023-01-19T15:02:44.655Z,3.9
2023-01-19T15:08:35.377Z,3.9
2023-01-19T15:14:25.915Z,4
2023-01-19T15:20:17.440Z,3.9
2023-01-19T15:26:10.577Z,3.8
2023-01-19T15:32:00.843Z,3.8
2023-01-19T15:37:50.821Z,3.8
2023-01-19T15:43:41.491Z,3.8
2023-01-19T15:49:32.840Z,3.7
2023-01-19T15:55:24.392Z,3.8
2023-01-19T16:01:15.097Z,3.7
2023-01-19T16:07:05.770Z,3.6
2023-01-19T16:12:57.381Z,3.6
2023-01-19T16:18:46.730Z,3.5
2023-01-19T16:24:37.607Z,3.5
2023-01-19T16:30:27.778Z,3.3
2023-01-19T16:36:19.417Z,3.3
2023-01-19T16:42:09.960Z,3.2
2023-01-19T16:48:00.316Z,3.2
2023-01-19T16:53:52.151Z,3.2
2023-01-19T16:59:42.842Z,3.2
2023-01-19T17:05:33.308Z,3.2
2023-01-19T17:11:23.234Z,3.2
2023-01-19T17:17:13.634Z,3.2
2023-01-19T17:23:04.941Z,3.2
2023-01-19T17:28:55.001Z,3.1
2023-01-19T17:34:45.698Z,3.2
2023-01-19T17:40:35.864Z,3.2
2023-01-19T17:46:27.796Z,3.1
2023-01-19T17:52:19.499Z,3
2023-01-19T17:58:09.575Z,3
2023-01-19T18:04:01.871Z,3
2023-01-19T18:09:52.631Z,3
2023-01-19T18:15:48.554Z,2.9
2023-01-19T18:21:39.327Z,2.9
2023-01-19T18:27:29.825Z,2.9
2023-01-19T18:33:21.123Z,2.6
2023-01-19T18:39:11.034Z,2.4
2023-01-19T18:45:02.059Z,2.4
2023-01-19T18:50:52.437Z,2.3
2023-01-19T18:56:42.330Z,2.3
2023-01-19T19:02:31.665Z,2.3
2023-01-19T19:08:22.429Z,2.1
2023-01-19T19:14:12.367Z,2
2023-01-19T19:20:02.685Z,2
2023-01-19T19:25:53.040Z,2.1
2023-01-19T19:31:43.018Z,2
2023-01-19T19:37:32.767Z,1.8
2023-01-19T19:43:23.712Z,1.6
2023-01-19T19:49:14.307Z,1.6
2023-01-19T19:55:06.986Z,1.6
2023-01-19T20:00:57.878Z,1.6
2023-01-19T20:06:47.919Z,1.5
2023-01-19T20:12:38.503Z,1.5
2023-01-19T20:18:30.038Z,1.7
2023-01-19T20:24:19.785Z,1.5
2023-01-19T20:30:12.389Z,1.5
2023-01-19T20:36:03.158Z,1.5
2023-01-19T20:41:53.479Z,1.6
2023-01-19T20:47:43.631Z,1.6
2023-01-19T20:53:33.641Z,1.4
2023-01-19T20:59:24.859Z,1.5
2023-01-19T21:05:15.891Z,1.3
2023-01-19T21:11:05.895Z,1.3
2023-01-19T21:16:57.390Z,1.4
2023-01-19T21:22:47.743Z,1.5
2023-01-19T21:28:37.963Z,1.4
2023-01-19T21:34:28.016Z,1.3
2023-01-19T21:40:19.590Z,1.6
2023-01-19T21:46:11.929Z,1.6
2023-01-19T21:52:03.128Z,1.7
2023-01-19T21:57:53.279Z,1.7
2023-01-19T22:03:43.150Z,1.7
2023-01-19T22:09:32.663Z,1.6
2023-01-19T22:15:23.888Z,1.6
2023-01-19T22:21:13.511Z,1.6
2023-01-19T22:27:03.364Z,1.7
2023-01-19T22:32:55.196Z,1.6
2023-01-19T22:38:44.939Z,1.6
2023-01-19T22:44:35.010Z,1.6
2023-01-19T22:50:25.373Z,1.7
2023-01-19T22:56:15.501Z,1.6
2023-01-19T23:02:07.539Z,1.6
2023-01-19T23:07:58.836Z,1.5
2023-01-19T23:13:49.937Z,1.7
2023-01-19T23:19:40.553Z,1.8
2023-01-19T23:25:30.225Z,1.6
2023-01-19T23:31:20.389Z,1.7
2023-01-19T23:37:11.703Z,1.7
2023-01-19T23:43:03.840Z,1.7
2023-01-19T23:48:54.769Z,1.7
2023-01-19T23:54:45.223Z,1.3
